Time;durP1;ratioP1;P1;durP2;ratioP2;P2;SDS_P1;SDS_P2;PMS_P1;PMS_P2;Temp;Humidity;BMP_temperature;BMP_pressure;BME280_temperature;BME280_humidity;BME280_pressure;Samples;Min_cycle;Max_cycle;Signal;HPM_P1;HPM_P2
2023/06/26 00:01:05;;;;;;;5.63;4.83;;;;;;;;;;5091779;28;20531;-70
2023/06/26 00:03:32;;;;;;;6.17;4.77;;;;;;;;;;5091621;28;20904;-70
2023/06/26 00:06:01;;;;;;;6.70;5.70;;;;;;;;;;5091060;28;20445;-70
2023/06/26 00:08:28;;;;;;;6.40;5.70;;;;;;;;;;5091193;28;20444;-70
2023/06/26 00:10:55;;;;;;;6.77;5.10;;;;;;;;;;5091905;28;20508;-70
2023/06/26 00:13:23;;;;;;;6.13;5.17;;;;;;;;;;5091452;28;21043;-70
2023/06/26 00:15:50;;;;;;;6.43;4.93;;;;;;;;;;5089673;28;20479;-70
2023/06/26 00:18:19;;;;;;;6.37;5.50;;;;;;;;;;5090760;28;21460;-70
2023/06/26 00:20:46;;;;;;;5.90;4.73;;;;;;;;;;5091298;28;20527;-70
2023/06/26 00:23:17;;;;;;;6.73;5.07;;;;;;;;;;5091532;28;20513;-70
2023/06/26 00:25:44;;;;;;;6.90;5.27;;;;;;;;;;5091378;28;20461;-70
2023/06/26 00:28:12;;;;;;;6.80;5.60;;;;;;;;;;5090859;28;20518;-70
2023/06/26 00:30:39;;;;;;;6.17;5.10;;;;;;;;;;5091121;28;20467;-70
2023/06/26 00:33:06;;;;;;;5.87;4.50;;;;;;;;;;5091027;28;20566;-70
2023/06/26 00:35:35;;;;;;;7.30;4.90;;;;;;;;;;5091170;28;20932;-70
2023/06/26 00:38:02;;;;;;;7.20;5.47;;;;;;;;;;5090773;28;20497;-70
2023/06/26 00:40:30;;;;;;;7.33;5.10;;;;;;;;;;5090661;28;20490;-70
2023/06/26 00:42:57;;;;;;;6.20;5.33;;;;;;;;;;5090992;28;20461;-69
2023/06/26 00:45:24;;;;;;;6.43;4.90;;;;;;;;;;5091774;28;20483;-70
2023/06/26 00:47:51;;;;;;;5.70;4.90;;;;;;;;;;5090823;28;20473;-70
2023/06/26 00:50:19;;;;;;;5.87;4.93;;;;;;;;;;5090092;28;20444;-70
2023/06/26 00:52:48;;;;;;;7.13;5.50;;;;;;;;;;5089369;28;20542;-70
2023/06/26 00:55:15;;;;;;;6.30;5.20;;;;;;;;;;5091225;28;20443;-71
2023/06/26 00:57:45;;;;;;;6.50;5.00;;;;;;;;;;5107852;28;20497;-71
2023/06/26 01:00:13;;;;;;;5.77;4.43;;;;;;;;;;5096201;28;20452;-70
2023/06/26 01:02:40;;;;;;;6.30;5.07;;;;;;;;;;5091178;28;20528;-70
2023/06/26 01:05:10;;;;;;;6.33;5.30;;;;;;;;;;5091020;28;20475;-70
2023/06/26 01:07:38;;;;;;;6.30;5.37;;;;;;;;;;5090537;28;20863;-70
2023/06/26 01:10:08;;;;;;;8.60;5.20;;;;;;;;;;5090556;28;20462;-70
2023/06/26 01:12:35;;;;;;;8.50;5.40;;;;;;;;;;5090676;28;20492;-70
2023/06/26 01:15:03;;;;;;;5.83;5.03;;;;;;;;;;5089169;28;21254;-70
2023/06/26 01:17:31;;;;;;;6.70;5.10;;;;;;;;;;5090473;28;20563;-70
2023/06/26 01:19:59;;;;;;;6.23;5.00;;;;;;;;;;5090514;28;20448;-70
2023/06/26 01:22:29;;;;;;;6.50;5.27;;;;;;;;;;5090632;28;20881;-70
2023/06/26 01:25:03;;;;;;;6.40;4.63;;;;;;;;;;5090926;28;20481;-70
2023/06/26 01:27:33;;;;;;;7.20;5.90;;;;;;;;;;5090351;28;20440;-70
2023/06/26 01:30:02;;;;;;;6.10;4.97;;;;;;;;;;5090609;28;20444;-70
2023/06/26 01:32:30;;;;;;;7.73;6.40;;;;;;;;;;5090891;28;20544;-70
2023/06/26 01:34:57;;;;;;;7.67;5.70;;;;;;;;;;5090803;28;20497;-70
2023/06/26 01:37:24;;;;;;;6.40;5.17;;;;;;;;;;5090669;28;20921;-70
2023/06/26 01:39:51;;;;;;;8.03;5.93;;;;;;;;;;5090248;28;20538;-70
2023/06/26 01:42:19;;;;;;;7.60;5.17;;;;;;;;;;5090794;28;20475;-70
2023/06/26 01:44:48;;;;;;;8.00;5.50;;;;;;;;;;5094448;28;20483;-70
2023/06/26 01:47:18;;;;;;;5.73;4.40;;;;;;;;;;5093670;28;20541;-70
2023/06/26 01:49:48;;;;;;;7.13;5.73;;;;;;;;;;5092889;28;20483;-70
2023/06/26 01:52:21;;;;;;;5.50;4.33;;;;;;;;;;5092717;28;20446;-69
2023/06/26 01:54:53;;;;;;;6.07;4.50;;;;;;;;;;5094591;28;20450;-70
2023/06/26 01:57:22;;;;;;;7.33;5.43;;;;;;;;;;5093643;28;20543;-70
2023/06/26 01:59:52;;;;;;;6.57;5.27;;;;;;;;;;5093612;28;20842;-70
2023/06/26 02:02:19;;;;;;;7.30;5.50;;;;;;;;;;5094105;28;20531;-70
2023/06/26 02:04:48;;;;;;;6.97;6.20;;;;;;;;;;5093886;28;20439;-70
2023/06/26 02:07:16;;;;;;;6.50;5.17;;;;;;;;;;5093331;28;20462;-70
2023/06/26 02:09:43;;;;;;;8.03;5.07;;;;;;;;;;5093782;28;20796;-69
2023/06/26 02:12:10;;;;;;;6.77;5.47;;;;;;;;;;5093858;28;20448;-70
2023/06/26 02:14:38;;;;;;;8.60;5.67;;;;;;;;;;5092293;28;20544;-70
2023/06/26 02:17:08;;;;;;;5.97;5.13;;;;;;;;;;5093115;28;20562;-70
2023/06/26 02:19:35;;;;;;;7.30;5.17;;;;;;;;;;5093182;28;20444;-70
2023/06/26 02:22:03;;;;;;;6.73;5.73;;;;;;;;;;5093768;28;20530;-70
2023/06/26 02:24:30;;;;;;;6.10;4.93;;;;;;;;;;5093422;28;20512;-70
2023/06/26 02:26:58;;;;;;;6.40;5.77;;;;;;;;;;5093130;28;20498;-70
2023/06/26 02:29:25;;;;;;;6.70;5.63;;;;;;;;;;5093358;28;20450;-70
2023/06/26 02:31:52;;;;;;;8.00;4.93;;;;;;;;;;5093539;28;20467;-70
2023/06/26 02:34:21;;;;;;;6.80;5.30;;;;;;;;;;5104672;28;20480;-71
2023/06/26 02:36:48;;;;;;;6.90;5.27;;;;;;;;;;5103082;28;20463;-70
2023/06/26 02:39:16;;;;;;;6.70;5.20;;;;;;;;;;5093099;28;20959;-70
2023/06/26 02:41:44;;;;;;;6.50;5.20;;;;;;;;;;5093740;28;20446;-70
2023/06/26 02:44:12;;;;;;;5.70;4.73;;;;;;;;;;5093287;28;20464;-70
2023/06/26 02:46:39;;;;;;;5.53;4.80;;;;;;;;;;5092732;28;20443;-70
2023/06/26 02:49:06;;;;;;;6.53;5.00;;;;;;;;;;5092078;28;20544;-70
2023/06/26 02:51:35;;;;;;;6.67;5.70;;;;;;;;;;5093199;28;20449;-70
2023/06/26 02:54:03;;;;;;;5.87;4.93;;;;;;;;;;5092609;28;20558;-70
2023/06/26 02:56:31;;;;;;;6.80;5.33;;;;;;;;;;5092764;28;20451;-70
2023/06/26 02:58:58;;;;;;;7.03;5.23;;;;;;;;;;5092539;28;20534;-70
2023/06/26 03:01:26;;;;;;;6.27;4.97;;;;;;;;;;5092949;28;20964;-70
2023/06/26 03:03:53;;;;;;;6.53;5.03;;;;;;;;;;5092823;28;21044;-70
2023/06/26 03:06:20;;;;;;;6.00;5.20;;;;;;;;;;5092371;28;20569;-70
2023/06/26 03:08:49;;;;;;;7.10;5.10;;;;;;;;;;5092559;28;20440;-70
2023/06/26 03:11:16;;;;;;;8.00;5.80;;;;;;;;;;5091760;28;20467;-70
2023/06/26 03:13:44;;;;;;;6.27;4.90;;;;;;;;;;5091389;28;20563;-70
2023/06/26 03:16:11;;;;;;;8.40;4.90;;;;;;;;;;5089671;28;20534;-70
2023/06/26 03:18:38;;;;;;;6.73;4.87;;;;;;;;;;5091113;28;20515;-70
2023/06/26 03:21:05;;;;;;;7.00;5.30;;;;;;;;;;5091246;28;20483;-70
2023/06/26 03:23:33;;;;;;;5.97;5.10;;;;;;;;;;5091135;28;20507;-70
2023/06/26 03:26:01;;;;;;;5.30;4.63;;;;;;;;;;5092272;28;20493;-70
2023/06/26 03:28:30;;;;;;;7.40;5.43;;;;;;;;;;5092139;28;20508;-70
2023/06/26 03:30:58;;;;;;;6.63;5.10;;;;;;;;;;5092781;28;20531;-70
2023/06/26 03:33:26;;;;;;;7.13;5.53;;;;;;;;;;5092094;28;20589;-70
2023/06/26 03:35:53;;;;;;;6.27;5.30;;;;;;;;;;5092394;28;20464;-70
2023/06/26 03:38:21;;;;;;;6.13;4.70;;;;;;;;;;5091453;28;20550;-70
2023/06/26 03:40:48;;;;;;;7.40;5.40;;;;;;;;;;5092300;28;20532;-70
2023/06/26 03:43:17;;;;;;;7.50;5.67;;;;;;;;;;5092094;28;20495;-71
2023/06/26 03:45:44;;;;;;;8.50;5.63;;;;;;;;;;5092198;28;20467;-70
2023/06/26 03:48:12;;;;;;;7.47;5.90;;;;;;;;;;5090153;28;20446;-70
2023/06/26 03:50:39;;;;;;;6.33;4.97;;;;;;;;;;5092257;28;20443;-69
2023/06/26 03:53:06;;;;;;;6.83;5.10;;;;;;;;;;5090188;28;20539;-70
2023/06/26 03:55:34;;;;;;;6.20;5.27;;;;;;;;;;5091562;28;20865;-70
2023/06/26 03:58:01;;;;;;;6.37;5.27;;;;;;;;;;5091599;28;20476;-70
2023/06/26 04:00:30;;;;;;;5.57;4.80;;;;;;;;;;5091493;28;20483;-70
2023/06/26 04:02:57;;;;;;;6.00;4.83;;;;;;;;;;5092770;28;20459;-70
2023/06/26 04:05:24;;;;;;;6.93;5.47;;;;;;;;;;5091957;28;20853;-70
2023/06/26 04:07:52;;;;;;;6.83;5.40;;;;;;;;;;5091715;28;20504;-70
2023/06/26 04:10:20;;;;;;;7.23;5.40;;;;;;;;;;5093379;28;20929;-71
2023/06/26 04:12:47;;;;;;;6.53;5.10;;;;;;;;;;5115835;28;20443;-68
2023/06/26 04:15:15;;;;;;;6.10;4.80;;;;;;;;;;5096189;28;20454;-70
2023/06/26 04:17:43;;;;;;;6.33;5.17;;;;;;;;;;5092742;28;21254;-70
2023/06/26 04:20:11;;;;;;;6.93;5.27;;;;;;;;;;5091922;28;20435;-70
2023/06/26 04:22:38;;;;;;;5.53;4.87;;;;;;;;;;5091618;28;20491;-70
2023/06/26 04:25:06;;;;;;;6.17;5.20;;;;;;;;;;5092080;28;20527;-70
2023/06/26 04:27:33;;;;;;;6.87;5.20;;;;;;;;;;5091527;28;20444;-71
2023/06/26 04:30:00;;;;;;;6.50;5.10;;;;;;;;;;5092021;28;20474;-71
2023/06/26 04:32:27;;;;;;;5.53;4.73;;;;;;;;;;5091712;28;20528;-71
2023/06/26 04:34:56;;;;;;;7.53;5.00;;;;;;;;;;5092018;28;20474;-70
2023/06/26 04:37:24;;;;;;;7.93;4.93;;;;;;;;;;5091364;28;20466;-70
2023/06/26 04:39:51;;;;;;;6.30;5.53;;;;;;;;;;5090918;28;20459;-69
2023/06/26 04:42:18;;;;;;;6.47;5.23;;;;;;;;;;5090969;28;20538;-70
2023/06/26 04:44:46;;;;;;;6.83;4.93;;;;;;;;;;5090272;28;20531;-70
2023/06/26 04:47:14;;;;;;;6.60;5.60;;;;;;;;;;5089506;28;20534;-70
2023/06/26 04:49:43;;;;;;;5.77;4.70;;;;;;;;;;5088424;28;20444;-69
2023/06/26 04:52:13;;;;;;;7.67;5.80;;;;;;;;;;5087251;28;20511;-70
2023/06/26 04:54:40;;;;;;;6.20;5.17;;;;;;;;;;5089539;28;20463;-70
2023/06/26 04:57:08;;;;;;;5.40;4.30;;;;;;;;;;5090298;28;20529;-70
2023/06/26 04:59:36;;;;;;;7.10;6.07;;;;;;;;;;5090922;28;20475;-71
2023/06/26 05:02:04;;;;;;;6.63;4.53;;;;;;;;;;5091486;28;20459;-70
2023/06/26 05:04:32;;;;;;;9.43;5.77;;;;;;;;;;5091665;28;20456;-71
2023/06/26 05:06:59;;;;;;;6.30;4.80;;;;;;;;;;5091709;28;20479;-71
2023/06/26 05:09:27;;;;;;;6.90;5.43;;;;;;;;;;5091810;28;20467;-71
2023/06/26 05:11:55;;;;;;;7.20;5.17;;;;;;;;;;5090725;28;20530;-74
2023/06/26 05:14:22;;;;;;;6.00;5.07;;;;;;;;;;5090637;28;20896;-69
2023/06/26 05:16:49;;;;;;;6.50;5.03;;;;;;;;;;5090377;28;20443;-68
2023/06/26 05:19:17;;;;;;;7.97;5.57;;;;;;;;;;5094159;28;20472;-68
2023/06/26 05:21:44;;;;;;;6.70;5.67;;;;;;;;;;5093879;28;20485;-68
2023/06/26 05:24:13;;;;;;;6.17;4.77;;;;;;;;;;5093860;28;20543;-68
2023/06/26 05:26:42;;;;;;;6.70;6.00;;;;;;;;;;5093793;28;20518;-68
2023/06/26 05:29:09;;;;;;;6.97;4.90;;;;;;;;;;5094036;28;20512;-68
2023/06/26 05:31:41;;;;;;;7.37;6.43;;;;;;;;;;5094676;28;20522;-69
2023/06/26 05:34:09;;;;;;;6.33;4.90;;;;;;;;;;5094696;28;20495;-69
2023/06/26 05:36:37;;;;;;;7.63;4.67;;;;;;;;;;5093986;28;20467;-69
2023/06/26 05:39:04;;;;;;;7.17;5.20;;;;;;;;;;5091238;28;20554;-68
2023/06/26 05:41:32;;;;;;;6.17;5.00;;;;;;;;;;5092189;28;21038;-68
2023/06/26 05:44:00;;;;;;;7.37;5.90;;;;;;;;;;5091114;28;20506;-67
2023/06/26 05:46:28;;;;;;;7.80;4.93;;;;;;;;;;5091547;28;20482;-68
2023/06/26 05:48:55;;;;;;;6.57;4.87;;;;;;;;;;5098347;28;20470;-66
2023/06/26 05:51:22;;;;;;;7.10;5.07;;;;;;;;;;5101739;28;20463;-66
2023/06/26 05:53:50;;;;;;;7.13;5.60;;;;;;;;;;5085367;28;20462;-67
2023/06/26 05:56:18;;;;;;;6.93;5.20;;;;;;;;;;5094182;28;20522;-67
2023/06/26 05:58:46;;;;;;;9.13;5.50;;;;;;;;;;5094042;28;20756;-67
2023/06/26 06:01:14;;;;;;;7.10;5.20;;;;;;;;;;5093995;28;20497;-67
2023/06/26 06:03:41;;;;;;;7.70;5.30;;;;;;;;;;5093814;28;20560;-67
2023/06/26 06:06:09;;;;;;;6.80;5.10;;;;;;;;;;5093527;28;20448;-66
2023/06/26 06:08:36;;;;;;;7.37;6.57;;;;;;;;;;5093798;28;20432;-67
2023/06/26 06:11:03;;;;;;;9.60;6.40;;;;;;;;;;5094014;28;20493;-67
2023/06/26 06:13:31;;;;;;;7.27;5.77;;;;;;;;;;5093744;28;20493;-67
2023/06/26 06:15:58;;;;;;;5.90;5.03;;;;;;;;;;5092029;28;20447;-67
2023/06/26 06:18:26;;;;;;;7.40;4.87;;;;;;;;;;5092969;28;20507;-67
2023/06/26 06:20:54;;;;;;;5.70;5.00;;;;;;;;;;5093988;28;20467;-67
2023/06/26 06:23:21;;;;;;;6.50;5.30;;;;;;;;;;5093625;28;20555;-67
2023/06/26 06:25:49;;;;;;;7.00;5.07;;;;;;;;;;5093456;28;20932;-68
2023/06/26 06:28:17;;;;;;;7.67;5.80;;;;;;;;;;5093293;28;20436;-67
2023/06/26 06:30:44;;;;;;;8.73;7.17;;;;;;;;;;5092507;28;20448;-67
2023/06/26 06:33:11;;;;;;;6.87;5.60;;;;;;;;;;5093577;28;20464;-67
2023/06/26 06:35:40;;;;;;;6.50;5.83;;;;;;;;;;5093493;28;20444;-67
2023/06/26 06:38:07;;;;;;;7.70;5.87;;;;;;;;;;5092761;28;20527;-67
2023/06/26 06:40:34;;;;;;;6.30;4.70;;;;;;;;;;5093437;28;21014;-67
2023/06/26 06:43:02;;;;;;;7.23;6.20;;;;;;;;;;5092974;28;20460;-67
2023/06/26 06:45:29;;;;;;;5.53;4.70;;;;;;;;;;5093069;28;20522;-67
2023/06/26 06:47:56;;;;;;;6.63;5.73;;;;;;;;;;5092616;28;20952;-67
2023/06/26 06:50:23;;;;;;;7.13;6.37;;;;;;;;;;5092401;28;20438;-67
2023/06/26 06:52:52;;;;;;;6.93;5.27;;;;;;;;;;5091513;28;20546;-67
2023/06/26 06:55:19;;;;;;;9.80;6.37;;;;;;;;;;5092893;28;20515;-67
2023/06/26 06:57:46;;;;;;;6.90;5.80;;;;;;;;;;5092612;28;20471;-67
2023/06/26 07:00:14;;;;;;;6.90;4.97;;;;;;;;;;5092510;28;20753;-67
2023/06/26 07:02:43;;;;;;;7.70;5.03;;;;;;;;;;5092711;28;20478;-67
2023/06/26 07:05:11;;;;;;;7.83;5.57;;;;;;;;;;5092744;28;20537;-67
2023/06/26 07:07:38;;;;;;;7.23;6.00;;;;;;;;;;5092416;28;20936;-67
2023/06/26 07:10:08;;;;;;;5.93;5.00;;;;;;;;;;5092143;28;20490;-67
2023/06/26 07:12:35;;;;;;;5.97;4.77;;;;;;;;;;5092475;28;20435;-67
2023/06/26 07:15:04;;;;;;;7.10;4.80;;;;;;;;;;5091108;28;20990;-67
2023/06/26 07:17:31;;;;;;;6.40;5.10;;;;;;;;;;5092317;28;20523;-67
2023/06/26 07:19:58;;;;;;;5.83;4.73;;;;;;;;;;5091929;28;21075;-67
2023/06/26 07:22:26;;;;;;;5.93;5.33;;;;;;;;;;5092337;28;20523;-67
2023/06/26 07:24:53;;;;;;;7.00;5.80;;;;;;;;;;5095095;28;20436;-67
2023/06/26 07:27:21;;;;;;;5.60;4.80;;;;;;;;;;5100316;28;20427;-67
2023/06/26 07:29:49;;;;;;;7.67;6.17;;;;;;;;;;5092092;28;20536;-67
2023/06/26 07:32:16;;;;;;;9.03;6.90;;;;;;;;;;5092268;28;20889;-67
2023/06/26 07:34:44;;;;;;;6.10;4.60;;;;;;;;;;5092233;28;20444;-67
2023/06/26 07:37:11;;;;;;;6.60;4.87;;;;;;;;;;5091989;28;20497;-67
2023/06/26 07:39:38;;;;;;;6.30;5.70;;;;;;;;;;5091700;28;20518;-67
2023/06/26 07:42:05;;;;;;;6.50;5.50;;;;;;;;;;5091760;28;20539;-67
2023/06/26 07:44:34;;;;;;;6.97;5.30;;;;;;;;;;5091920;28;20537;-67
2023/06/26 07:47:01;;;;;;;8.30;6.10;;;;;;;;;;5091608;28;20444;-67
2023/06/26 07:49:29;;;;;;;6.13;5.37;;;;;;;;;;5090417;28;20932;-67
2023/06/26 07:51:56;;;;;;;5.90;5.30;;;;;;;;;;5090103;28;20526;-67
2023/06/26 07:54:23;;;;;;;7.30;5.80;;;;;;;;;;5091679;28;20463;-67
2023/06/26 07:56:55;;;;;;;5.97;5.23;;;;;;;;;;5091330;28;20471;-67
2023/06/26 07:59:23;;;;;;;9.10;7.50;;;;;;;;;;5091359;28;20497;-67
2023/06/26 08:01:52;;;;;;;6.83;6.00;;;;;;;;;;5091468;28;20827;-67
2023/06/26 08:04:20;;;;;;;7.90;6.37;;;;;;;;;;5091937;28;20551;-67
2023/06/26 08:06:47;;;;;;;8.00;6.77;;;;;;;;;;5091177;28;20443;-67
2023/06/26 08:09:14;;;;;;;8.60;7.03;;;;;;;;;;5091464;28;20464;-67
2023/06/26 08:11:41;;;;;;;6.77;5.00;;;;;;;;;;5091411;28;20568;-67
2023/06/26 08:14:09;;;;;;;7.10;5.30;;;;;;;;;;5089717;28;20495;-67
2023/06/26 08:16:36;;;;;;;6.17;5.60;;;;;;;;;;5090910;28;20439;-67
2023/06/26 08:19:05;;;;;;;5.67;5.07;;;;;;;;;;5091231;28;20503;-67
2023/06/26 08:21:32;;;;;;;7.73;6.30;;;;;;;;;;5091434;28;20534;-67
2023/06/26 08:23:59;;;;;;;6.50;5.10;;;;;;;;;;5091166;28;21026;-67
2023/06/26 08:26:26;;;;;;;6.40;5.27;;;;;;;;;;5090948;28;20436;-67
2023/06/26 08:28:54;;;;;;;6.10;5.47;;;;;;;;;;5091045;28;20944;-67
2023/06/26 08:31:21;;;;;;;5.80;4.67;;;;;;;;;;5091097;28;20443;-67
2023/06/26 08:33:48;;;;;;;7.33;5.57;;;;;;;;;;5091266;28;20455;-67
2023/06/26 08:36:17;;;;;;;8.83;6.70;;;;;;;;;;5089986;28;20483;-67
2023/06/26 08:38:45;;;;;;;7.00;5.40;;;;;;;;;;5090923;28;20451;-67
2023/06/26 08:41:12;;;;;;;6.30;5.10;;;;;;;;;;5091137;28;20440;-68
2023/06/26 08:43:39;;;;;;;7.40;6.37;;;;;;;;;;5091185;28;20560;-67
2023/06/26 08:46:06;;;;;;;5.57;4.67;;;;;;;;;;5090850;28;20951;-67
2023/06/26 08:48:34;;;;;;;5.47;4.90;;;;;;;;;;5089952;28;20604;-67
2023/06/26 08:51:03;;;;;;;7.50;5.40;;;;;;;;;;5091422;28;20436;-67
2023/06/26 08:53:35;;;;;;;6.30;5.07;;;;;;;;;;5091883;28;20542;-67
2023/06/26 08:56:02;;;;;;;6.47;5.80;;;;;;;;;;5095258;28;20453;-67
2023/06/26 08:58:30;;;;;;;7.80;6.37;;;;;;;;;;5095053;28;20564;-67
2023/06/26 09:00:57;;;;;;;6.45;5.22;;;;;;;;;;5098178;28;20483;-67
2023/06/26 09:03:25;;;;;;;7.37;6.23;;;;;;;;;;5102636;28;20493;-68
2023/06/26 09:05:53;;;;;;;8.87;5.40;;;;;;;;;;5095253;28;21003;-67
2023/06/26 09:08:20;;;;;;;6.37;5.50;;;;;;;;;;5095045;28;20470;-67
2023/06/26 09:10:49;;;;;;;6.30;5.63;;;;;;;;;;5095472;28;20808;-68
2023/06/26 09:13:16;;;;;;;7.90;5.83;;;;;;;;;;5093957;28;20463;-67
2023/06/26 09:15:44;;;;;;;8.10;6.70;;;;;;;;;;5091943;28;20467;-67
2023/06/26 09:18:11;;;;;;;7.00;5.20;;;;;;;;;;5093069;28;20527;-67
2023/06/26 09:20:39;;;;;;;8.43;6.77;;;;;;;;;;5094340;28;20538;-67
2023/06/26 09:23:06;;;;;;;8.37;6.67;;;;;;;;;;5094360;28;20520;-67
2023/06/26 09:25:33;;;;;;;9.47;6.83;;;;;;;;;;5094451;28;20428;-67
2023/06/26 09:28:02;;;;;;;6.80;5.30;;;;;;;;;;5094505;28;20504;-68
2023/06/26 09:30:30;;;;;;;6.80;5.87;;;;;;;;;;5094702;28;20982;-68
2023/06/26 09:32:57;;;;;;;6.43;5.40;;;;;;;;;;5094266;28;20463;-67
2023/06/26 09:35:24;;;;;;;7.40;5.20;;;;;;;;;;5094493;28;20523;-67
2023/06/26 09:37:52;;;;;;;11.57;5.77;;;;;;;;;;5094197;28;20527;-67
2023/06/26 09:40:20;;;;;;;8.60;7.23;;;;;;;;;;5094066;28;20511;-67
2023/06/26 09:42:47;;;;;;;7.20;6.40;;;;;;;;;;5094147;28;20987;-68
2023/06/26 09:45:22;;;;;;;7.67;5.70;;;;;;;;;;5094151;28;21008;-67
2023/06/26 09:47:49;;;;;;;17.77;7.80;;;;;;;;;;5093955;28;20523;-68
2023/06/26 09:50:27;;;;;;;7.63;6.63;;;;;;;;;;5093754;28;21005;-68
2023/06/26 09:52:54;;;;;;;7.80;6.47;;;;;;;;;;5092582;28;20463;-68
2023/06/26 09:55:22;;;;;;;13.10;6.77;;;;;;;;;;5093880;28;21019;-68
2023/06/26 09:57:51;;;;;;;8.93;5.97;;;;;;;;;;5093722;28;20447;-68
2023/06/26 10:00:18;;;;;;;8.27;7.37;;;;;;;;;;5093811;28;20487;-68
2023/06/26 10:02:47;;;;;;;10.10;6.20;;;;;;;;;;5094184;28;20542;-68
2023/06/26 10:05:14;;;;;;;10.33;6.30;;;;;;;;;;5092464;28;20523;-68
2023/06/26 10:07:42;;;;;;;8.37;6.33;;;;;;;;;;5093410;28;20440;-67
2023/06/26 10:10:10;;;;;;;8.57;5.27;;;;;;;;;;5093592;28;20478;-67
2023/06/26 10:12:37;;;;;;;9.37;6.17;;;;;;;;;;5093692;28;20487;-68
2023/06/26 10:15:05;;;;;;;9.60;5.97;;;;;;;;;;5091881;28;20999;-67
2023/06/26 10:17:36;;;;;;;10.17;6.97;;;;;;;;;;5093254;28;20443;-67
2023/06/26 10:20:06;;;;;;;9.17;6.40;;;;;;;;;;5093332;28;20479;-67
2023/06/26 10:22:37;;;;;;;8.40;5.70;;;;;;;;;;5093639;28;20486;-68
2023/06/26 10:25:06;;;;;;;9.30;7.00;;;;;;;;;;5093221;28;21013;-67
2023/06/26 10:27:35;;;;;;;8.30;6.40;;;;;;;;;;5093062;28;20451;-67
2023/06/26 10:30:06;;;;;;;9.60;6.70;;;;;;;;;;5093114;28;20539;-67
2023/06/26 10:32:34;;;;;;;5.87;5.27;;;;;;;;;;5093049;28;20471;-67
2023/06/26 10:35:03;;;;;;;6.00;5.17;;;;;;;;;;5092875;28;20440;-67
2023/06/26 10:37:44;;;;;;;9.57;6.00;;;;;;;;;;5098106;28;20454;-68
2023/06/26 10:40:11;;;;;;;7.43;6.07;;;;;;;;;;5091677;28;20472;-67
2023/06/26 10:42:39;;;;;;;9.20;6.37;;;;;;;;;;5093002;28;20452;-68
2023/06/26 10:45:15;;;;;;;8.50;6.43;;;;;;;;;;5092520;28;20467;-68
2023/06/26 10:47:42;;;;;;;13.03;6.67;;;;;;;;;;5089917;28;20522;-67
2023/06/26 10:50:19;;;;;;;11.80;10.60;;;;;;;;;;5092565;28;20432;-67
2023/06/26 10:53:08;;;;;;;6.73;5.87;;;;;;;;;;5111121;22;20494;-54
2023/06/26 10:55:35;;;;;;;9.73;5.30;;;;;;;;;;5113117;28;20479;-53
2023/06/26 10:58:03;;;;;;;6.60;5.97;;;;;;;;;;5112552;28;20439;-53
2023/06/26 11:00:30;;;;;;;6.93;5.90;;;;;;;;;;5112223;28;20474;-51
2023/06/26 11:02:57;;;;;;;8.10;5.53;;;;;;;;;;5112666;28;20520;-54
2023/06/26 11:05:28;;;;;;;7.43;5.77;;;;;;;;;;5137622;22;20435;-64
2023/06/26 11:08:06;;;;;;;7.27;5.33;;;;;;;;;;5092037;28;20533;-63
2023/06/26 11:10:48;;;;;;;10.07;5.97;;;;;;;;;;5092322;28;20432;-63
2023/06/26 11:13:15;;;;;;;6.83;5.10;;;;;;;;;;5092187;28;20551;-63
2023/06/26 11:15:44;;;;;;;11.57;6.00;;;;;;;;;;5089278;28;20842;-63
2023/06/26 11:18:11;;;;;;;7.37;5.00;;;;;;;;;;5090960;28;20428;-63
2023/06/26 11:20:39;;;;;;;6.00;5.40;;;;;;;;;;5092107;28;20602;-70
2023/06/26 11:23:09;;;;;;;7.33;5.10;;;;;;;;;;5092197;28;20487;-64
2023/06/26 11:25:37;;;;;;;6.60;4.87;;;;;;;;;;5092285;28;20936;-64
2023/06/26 11:28:05;;;;;;;5.97;4.57;;;;;;;;;;5091492;28;21027;-64
2023/06/26 11:30:32;;;;;;;5.97;4.70;;;;;;;;;;5091548;28;20863;-67
2023/06/26 11:33:07;;;;;;;6.03;5.10;;;;;;;;;;5091851;28;20550;-64
2023/06/26 11:35:35;;;;;;;7.50;5.70;;;;;;;;;;5091612;28;20928;-64
2023/06/26 11:38:04;;;;;;;5.30;3.97;;;;;;;;;;5091391;28;20439;-64
2023/06/26 11:40:34;;;;;;;5.40;4.37;;;;;;;;;;5091389;28;20480;-64
2023/06/26 11:43:03;;;;;;;6.17;5.30;;;;;;;;;;5092040;28;20567;-64
2023/06/26 11:45:30;;;;;;;5.60;5.10;;;;;;;;;;5092316;28;20471;-64
2023/06/26 11:47:58;;;;;;;6.03;4.70;;;;;;;;;;5091466;28;20439;-64
2023/06/26 11:50:25;;;;;;;6.20;5.17;;;;;;;;;;5091690;28;20525;-64
2023/06/26 11:52:56;;;;;;;6.70;4.90;;;;;;;;;;5090069;28;20555;-64
2023/06/26 11:55:23;;;;;;;6.90;4.80;;;;;;;;;;5091680;28;20435;-64
2023/06/26 11:57:54;;;;;;;9.17;4.80;;;;;;;;;;5091229;28;20907;-64
2023/06/26 12:00:22;;;;;;;9.70;4.43;;;;;;;;;;5091090;28;20559;-64
2023/06/26 12:02:50;;;;;;;8.47;4.70;;;;;;;;;;5091369;28;21042;-64
2023/06/26 12:05:17;;;;;;;8.77;5.50;;;;;;;;;;5091591;28;20531;-64
2023/06/26 12:07:45;;;;;;;8.10;4.80;;;;;;;;;;5091101;28;20483;-64
2023/06/26 12:10:13;;;;;;;9.67;4.70;;;;;;;;;;5091343;28;20440;-64
2023/06/26 12:47:08;;;;;;;7.27;5.30;;;;;;;;;;5103512;27;20694;-50
2023/06/26 12:49:35;;;;;;;8.03;5.50;;;;;;;;;;5088207;28;21014;-51
2023/06/26 12:52:03;;;;;;;8.93;5.07;;;;;;;;;;5088032;28;20515;-50
2023/06/26 12:54:31;;;;;;;8.33;4.97;;;;;;;;;;5087623;28;20829;-48
2023/06/26 12:56:58;;;;;;;8.90;5.77;;;;;;;;;;5087538;28;20478;-48
2023/06/26 12:59:26;;;;;;;8.40;4.97;;;;;;;;;;5088168;28;20584;-49
2023/06/26 13:01:53;;;;;;;5.50;4.50;;;;;;;;;;5088737;28;20531;-50
2023/06/26 13:04:22;;;;;;;6.50;4.70;;;;;;;;;;5087921;28;20887;-49
2023/06/26 13:06:49;;;;;;;6.10;4.63;;;;;;;;;;5087336;28;20491;-50
2023/06/26 13:09:17;;;;;;;7.40;5.50;;;;;;;;;;5087755;28;20476;-49
2023/06/26 13:11:44;;;;;;;6.33;5.40;;;;;;;;;;5087824;28;20534;-50
2023/06/26 13:14:11;;;;;;;6.63;5.10;;;;;;;;;;5087364;28;20505;-50
2023/06/26 13:16:38;;;;;;;5.37;4.80;;;;;;;;;;5087189;28;20894;-49
2023/06/26 13:19:06;;;;;;;6.20;5.00;;;;;;;;;;5087731;28;20855;-50
2023/06/26 13:21:35;;;;;;;6.23;5.50;;;;;;;;;;5087724;28;20536;-49
2023/06/26 13:24:03;;;;;;;5.60;4.87;;;;;;;;;;5087253;28;20931;-50
2023/06/26 13:26:30;;;;;;;5.50;4.90;;;;;;;;;;5086820;28;20521;-50
2023/06/26 13:28:57;;;;;;;7.37;5.50;;;;;;;;;;5087179;28;20884;-50
2023/06/26 13:31:25;;;;;;;5.83;4.83;;;;;;;;;;5087444;28;20440;-50
2023/06/26 13:33:52;;;;;;;7.47;4.73;;;;;;;;;;5087352;28;20530;-47
2023/06/26 13:36:20;;;;;;;6.30;4.03;;;;;;;;;;5086247;28;20479;-50
2023/06/26 13:38:55;;;;;;;6.50;5.40;;;;;;;;;;5087228;28;20939;-50
2023/06/26 13:41:22;;;;;;;9.23;5.60;;;;;;;;;;5087063;28;20807;-50
2023/06/26 13:43:50;;;;;;;4.90;4.40;;;;;;;;;;5086993;28;21022;-47
2023/06/26 13:46:17;;;;;;;5.70;5.17;;;;;;;;;;5082895;28;20544;-49
2023/06/26 13:48:44;;;;;;;10.17;5.27;;;;;;;;;;5073510;28;20448;-48
2023/06/26 13:51:11;;;;;;;6.53;4.60;;;;;;;;;;5073584;28;20503;-49
2023/06/26 13:53:39;;;;;;;14.00;6.53;;;;;;;;;;5073757;28;20484;-48
2023/06/26 13:56:07;;;;;;;9.53;5.13;;;;;;;;;;5072993;28;20567;-50
2023/06/26 13:58:36;;;;;;;6.50;5.20;;;;;;;;;;5073446;28;20444;-48
2023/06/26 14:01:04;;;;;;;7.60;4.57;;;;;;;;;;5073433;28;20526;-48
2023/06/26 14:03:31;;;;;;;7.87;5.40;;;;;;;;;;5073250;28;20835;-48
2023/06/26 14:05:58;;;;;;;7.00;4.80;;;;;;;;;;5072777;28;20548;-48
2023/06/26 14:08:25;;;;;;;14.27;5.60;;;;;;;;;;5073246;28;20480;-48
2023/06/26 14:10:53;;;;;;;6.27;5.30;;;;;;;;;;5073119;28;20476;-47
2023/06/26 14:13:21;;;;;;;6.40;5.27;;;;;;;;;;5072845;28;20461;-47
2023/06/26 14:15:48;;;;;;;6.57;5.10;;;;;;;;;;5071466;28;20468;-47
2023/06/26 14:18:17;;;;;;;6.20;5.60;;;;;;;;;;5072377;28;20533;-47
2023/06/26 14:20:44;;;;;;;6.63;5.73;;;;;;;;;;5072831;28;21071;-47
2023/06/26 14:23:12;;;;;;;40.53;7.83;;;;;;;;;;5072923;28;21010;-47
2023/06/26 14:25:39;;;;;;;5.80;4.60;;;;;;;;;;5072540;28;20520;-47
2023/06/26 14:28:06;;;;;;;7.17;6.47;;;;;;;;;;5072784;28;20519;-47
2023/06/26 14:30:35;;;;;;;5.33;4.83;;;;;;;;;;5072760;28;20850;-46
2023/06/26 14:33:02;;;;;;;5.83;4.83;;;;;;;;;;5072507;28;20531;-47
2023/06/26 14:35:29;;;;;;;5.03;4.53;;;;;;;;;;5071673;28;20563;-44
2023/06/26 14:37:56;;;;;;;6.37;5.30;;;;;;;;;;5072842;28;20476;-47
2023/06/26 14:40:24;;;;;;;7.33;5.83;;;;;;;;;;5072626;28;20543;-46
2023/06/26 14:42:51;;;;;;;5.50;4.70;;;;;;;;;;5072755;28;20940;-47
2023/06/26 14:45:18;;;;;;;25.33;18.97;;;;;;;;;;5072326;28;20480;-47
2023/06/26 14:47:47;;;;;;;69.47;11.50;;;;;;;;;;5072597;28;20556;-47
2023/06/26 14:50:14;;;;;;;69.73;21.80;;;;;;;;;;5072126;28;20544;-49
2023/06/26 14:52:41;;;;;;;21.60;7.13;;;;;;;;;;5072490;28;20472;-47
2023/06/26 14:55:09;;;;;;;7.20;5.63;;;;;;;;;;5071761;28;21003;-47
2023/06/26 14:57:36;;;;;;;7.27;5.60;;;;;;;;;;5071894;28;20509;-47
2023/06/26 15:00:04;;;;;;;1063.70;191.13;;;;;;;;;;5071736;28;20532;-47
2023/06/26 15:02:31;;;;;;;11.67;6.40;;;;;;;;;;5072206;28;20441;-48
2023/06/26 15:04:59;;;;;;;12.43;6.30;;;;;;;;;;5071944;28;21020;-46
2023/06/26 15:07:27;;;;;;;6.33;5.73;;;;;;;;;;5071939;28;20488;-48
2023/06/26 15:09:54;;;;;;;13.73;7.00;;;;;;;;;;5072447;28;20468;-46
2023/06/26 15:12:23;;;;;;;6.90;6.13;;;;;;;;;;5072078;28;20535;-47
2023/06/26 15:14:51;;;;;;;6.43;5.50;;;;;;;;;;5071479;28;20441;-46
2023/06/26 15:17:18;;;;;;;7.23;6.00;;;;;;;;;;5068486;28;20567;-44
2023/06/26 15:19:45;;;;;;;32.40;13.40;;;;;;;;;;5069480;28;20502;-47